sensor_id;sensor_type;location;lat;lon;timestamp;P1;durP1;ratioP1;P2;durP2;ratioP2
13040;SDS011;6587;42.728;23.288;2024-03-07T00:02:08;34.73;;;20.00;;
13040;SDS011;6587;42.728;23.288;2024-03-07T00:04:36;33.97;;;19.83;;
13040;SDS011;6587;42.728;23.288;2024-03-07T00:07:03;33.63;;;19.83;;
13040;SDS011;6587;42.728;23.288;2024-03-07T00:09:31;35.53;;;20.00;;
13040;SDS011;6587;42.728;23.288;2024-03-07T00:11:59;37.20;;;20.73;;
13040;SDS011;6587;42.728;23.288;2024-03-07T00:14:26;37.33;;;21.80;;
13040;SDS011;6587;42.728;23.288;2024-03-07T00:16:54;36.00;;;20.63;;
13040;SDS011;6587;42.728;23.288;2024-03-07T00:19:21;40.53;;;21.63;;
13040;SDS011;6587;42.728;23.288;2024-03-07T00:21:52;38.73;;;21.07;;
13040;SDS011;6587;42.728;23.288;2024-03-07T00:24:19;36.67;;;21.13;;
13040;SDS011;6587;42.728;23.288;2024-03-07T00:26:46;37.93;;;21.97;;
13040;SDS011;6587;42.728;23.288;2024-03-07T00:29:15;36.80;;;20.73;;
13040;SDS011;6587;42.728;23.288;2024-03-07T00:31:43;37.57;;;20.93;;
13040;SDS011;6587;42.728;23.288;2024-03-07T00:34:10;36.63;;;21.13;;
13040;SDS011;6587;42.728;23.288;2024-03-07T00:36:39;35.03;;;19.63;;
13040;SDS011;6587;42.728;23.288;2024-03-07T00:39:07;34.93;;;20.37;;
13040;SDS011;6587;42.728;23.288;2024-03-07T00:41:37;36.63;;;20.40;;
13040;SDS011;6587;42.728;23.288;2024-03-07T00:44:03;30.40;;;18.60;;
13040;SDS011;6587;42.728;23.288;2024-03-07T00:46:30;34.03;;;20.27;;
13040;SDS011;6587;42.728;23.288;2024-03-07T00:48:57;36.33;;;18.93;;
13040;SDS011;6587;42.728;23.288;2024-03-07T00:51:24;30.97;;;17.33;;
13040;SDS011;6587;42.728;23.288;2024-03-07T00:53:51;35.47;;;19.13;;
13040;SDS011;6587;42.728;23.288;2024-03-07T00:56:19;32.53;;;18.43;;
13040;SDS011;6587;42.728;23.288;2024-03-07T00:58:47;31.60;;;18.23;;
13040;SDS011;6587;42.728;23.288;2024-03-07T01:01:14;32.70;;;19.53;;
13040;SDS011;6587;42.728;23.288;2024-03-07T01:03:41;31.50;;;18.13;;
13040;SDS011;6587;42.728;23.288;2024-03-07T01:06:08;29.00;;;17.10;;
13040;SDS011;6587;42.728;23.288;2024-03-07T01:08:35;29.90;;;17.33;;
13040;SDS011;6587;42.728;23.288;2024-03-07T01:11:02;31.90;;;18.20;;
13040;SDS011;6587;42.728;23.288;2024-03-07T01:13:35;33.20;;;17.67;;
13040;SDS011;6587;42.728;23.288;2024-03-07T01:16:03;28.53;;;17.30;;
13040;SDS011;6587;42.728;23.288;2024-03-07T01:18:30;29.13;;;17.63;;
13040;SDS011;6587;42.728;23.288;2024-03-07T01:20:58;34.73;;;18.57;;
13040;SDS011;6587;42.728;23.288;2024-03-07T01:23:25;31.83;;;18.47;;
13040;SDS011;6587;42.728;23.288;2024-03-07T01:25:53;33.13;;;18.13;;
13040;SDS011;6587;42.728;23.288;2024-03-07T01:28:21;34.57;;;19.13;;
13040;SDS011;6587;42.728;23.288;2024-03-07T01:30:50;30.77;;;17.80;;
13040;SDS011;6587;42.728;23.288;2024-03-07T01:33:17;35.07;;;19.53;;
13040;SDS011;6587;42.728;23.288;2024-03-07T01:35:45;34.27;;;17.67;;
13040;SDS011;6587;42.728;23.288;2024-03-07T01:38:12;31.23;;;17.43;;
13040;SDS011;6587;42.728;23.288;2024-03-07T01:40:39;40.47;;;19.07;;
13040;SDS011;6587;42.728;23.288;2024-03-07T01:43:06;30.00;;;18.13;;
13040;SDS011;6587;42.728;23.288;2024-03-07T01:45:33;28.33;;;16.23;;
13040;SDS011;6587;42.728;23.288;2024-03-07T01:48:04;31.03;;;17.93;;
13040;SDS011;6587;42.728;23.288;2024-03-07T01:50:31;32.07;;;18.30;;
13040;SDS011;6587;42.728;23.288;2024-03-07T01:52:59;32.37;;;17.43;;
13040;SDS011;6587;42.728;23.288;2024-03-07T01:55:26;31.30;;;17.80;;
13040;SDS011;6587;42.728;23.288;2024-03-07T01:57:54;31.47;;;17.63;;
13040;SDS011;6587;42.728;23.288;2024-03-07T02:00:25;31.13;;;17.20;;
13040;SDS011;6587;42.728;23.288;2024-03-07T02:02:53;30.43;;;16.87;;
13040;SDS011;6587;42.728;23.288;2024-03-07T02:05:21;31.17;;;17.77;;
13040;SDS011;6587;42.728;23.288;2024-03-07T02:07:49;30.10;;;17.33;;
13040;SDS011;6587;42.728;23.288;2024-03-07T02:10:16;28.63;;;17.47;;
13040;SDS011;6587;42.728;23.288;2024-03-07T02:12:43;30.23;;;17.30;;
13040;SDS011;6587;42.728;23.288;2024-03-07T02:15:11;27.03;;;16.87;;
13040;SDS011;6587;42.728;23.288;2024-03-07T02:17:39;29.97;;;16.90;;
13040;SDS011;6587;42.728;23.288;2024-03-07T02:20:08;31.53;;;17.30;;
13040;SDS011;6587;42.728;23.288;2024-03-07T02:22:39;29.30;;;16.77;;
13040;SDS011;6587;42.728;23.288;2024-03-07T02:25:07;25.57;;;15.27;;
13040;SDS011;6587;42.728;23.288;2024-03-07T02:27:35;29.27;;;17.13;;
13040;SDS011;6587;42.728;23.288;2024-03-07T02:30:02;31.47;;;16.83;;
13040;SDS011;6587;42.728;23.288;2024-03-07T02:32:30;31.80;;;16.40;;
13040;SDS011;6587;42.728;23.288;2024-03-07T02:34:57;30.13;;;17.20;;
13040;SDS011;6587;42.728;23.288;2024-03-07T02:37:24;28.90;;;16.50;;
13040;SDS011;6587;42.728;23.288;2024-03-07T02:39:52;32.20;;;17.53;;
13040;SDS011;6587;42.728;23.288;2024-03-07T02:42:20;32.23;;;18.07;;
13040;SDS011;6587;42.728;23.288;2024-03-07T02:44:47;31.10;;;17.10;;
13040;SDS011;6587;42.728;23.288;2024-03-07T02:47:14;29.37;;;16.63;;
13040;SDS011;6587;42.728;23.288;2024-03-07T02:49:41;31.17;;;16.33;;
13040;SDS011;6587;42.728;23.288;2024-03-07T02:52:08;34.07;;;17.53;;
13040;SDS011;6587;42.728;23.288;2024-03-07T02:54:35;34.83;;;17.97;;
13040;SDS011;6587;42.728;23.288;2024-03-07T02:57:04;30.17;;;15.63;;
13040;SDS011;6587;42.728;23.288;2024-03-07T02:59:31;29.67;;;15.90;;
13040;SDS011;6587;42.728;23.288;2024-03-07T03:01:57;30.90;;;16.10;;
13040;SDS011;6587;42.728;23.288;2024-03-07T03:04:24;27.87;;;15.90;;
13040;SDS011;6587;42.728;23.288;2024-03-07T03:06:51;27.03;;;14.90;;
13040;SDS011;6587;42.728;23.288;2024-03-07T03:09:18;28.63;;;15.33;;
13040;SDS011;6587;42.728;23.288;2024-03-07T03:11:46;29.47;;;16.17;;
13040;SDS011;6587;42.728;23.288;2024-03-07T03:14:15;25.43;;;15.47;;
13040;SDS011;6587;42.728;23.288;2024-03-07T03:16:42;30.73;;;15.80;;
13040;SDS011;6587;42.728;23.288;2024-03-07T03:19:09;26.77;;;15.13;;
13040;SDS011;6587;42.728;23.288;2024-03-07T03:21:36;28.73;;;15.27;;
13040;SDS011;6587;42.728;23.288;2024-03-07T03:24:03;28.87;;;15.70;;
13040;SDS011;6587;42.728;23.288;2024-03-07T03:26:30;29.20;;;15.93;;
13040;SDS011;6587;42.728;23.288;2024-03-07T03:28:57;28.00;;;16.20;;
13040;SDS011;6587;42.728;23.288;2024-03-07T03:31:25;27.33;;;15.00;;
13040;SDS011;6587;42.728;23.288;2024-03-07T03:33:52;23.13;;;13.67;;
13040;SDS011;6587;42.728;23.288;2024-03-07T03:36:19;19.90;;;12.70;;
13040;SDS011;6587;42.728;23.288;2024-03-07T03:38:46;23.03;;;12.93;;
13040;SDS011;6587;42.728;23.288;2024-03-07T03:41:14;19.80;;;11.30;;
13040;SDS011;6587;42.728;23.288;2024-03-07T03:43:42;14.07;;;8.93;;
13040;SDS011;6587;42.728;23.288;2024-03-07T03:46:09;15.47;;;8.47;;
13040;SDS011;6587;42.728;23.288;2024-03-07T03:48:38;8.93;;;5.53;;
13040;SDS011;6587;42.728;23.288;2024-03-07T03:51:06;8.20;;;5.33;;
13040;SDS011;6587;42.728;23.288;2024-03-07T03:53:34;7.60;;;4.37;;
13040;SDS011;6587;42.728;23.288;2024-03-07T03:56:01;6.03;;;4.30;;
13040;SDS011;6587;42.728;23.288;2024-03-07T03:58:31;6.23;;;4.10;;
13040;SDS011;6587;42.728;23.288;2024-03-07T04:00:58;5.90;;;3.80;;
13040;SDS011;6587;42.728;23.288;2024-03-07T04:03:25;6.33;;;4.00;;
13040;SDS011;6587;42.728;23.288;2024-03-07T04:05:53;5.43;;;4.17;;
13040;SDS011;6587;42.728;23.288;2024-03-07T04:08:21;6.60;;;4.30;;
13040;SDS011;6587;42.728;23.288;2024-03-07T04:10:48;7.50;;;4.73;;
13040;SDS011;6587;42.728;23.288;2024-03-07T04:13:15;7.13;;;4.10;;
13040;SDS011;6587;42.728;23.288;2024-03-07T04:15:42;5.07;;;3.60;;
13040;SDS011;6587;42.728;23.288;2024-03-07T04:18:07;5.00;;;3.40;;
13040;SDS011;6587;42.728;23.288;2024-03-07T04:20:34;5.10;;;3.57;;
13040;SDS011;6587;42.728;23.288;2024-03-07T04:23:03;5.13;;;3.00;;
13040;SDS011;6587;42.728;23.288;2024-03-07T04:25:30;3.50;;;2.90;;
13040;SDS011;6587;42.728;23.288;2024-03-07T04:27:58;4.20;;;3.00;;
13040;SDS011;6587;42.728;23.288;2024-03-07T04:30:25;4.70;;;3.00;;
13040;SDS011;6587;42.728;23.288;2024-03-07T04:32:52;5.37;;;3.40;;
13040;SDS011;6587;42.728;23.288;2024-03-07T04:35:19;4.83;;;3.23;;
13040;SDS011;6587;42.728;23.288;2024-03-07T04:37:46;5.70;;;4.00;;
13040;SDS011;6587;42.728;23.288;2024-03-07T04:40:15;5.87;;;4.07;;
13040;SDS011;6587;42.728;23.288;2024-03-07T04:42:42;6.40;;;4.37;;
13040;SDS011;6587;42.728;23.288;2024-03-07T04:45:10;5.00;;;3.60;;
13040;SDS011;6587;42.728;23.288;2024-03-07T04:47:38;5.63;;;3.73;;
13040;SDS011;6587;42.728;23.288;2024-03-07T04:50:07;4.90;;;4.03;;
13040;SDS011;6587;42.728;23.288;2024-03-07T04:52:36;5.43;;;3.97;;
13040;SDS011;6587;42.728;23.288;2024-03-07T04:55:03;5.17;;;3.57;;
13040;SDS011;6587;42.728;23.288;2024-03-07T04:57:35;5.50;;;3.93;;
13040;SDS011;6587;42.728;23.288;2024-03-07T05:00:02;5.17;;;3.60;;
13040;SDS011;6587;42.728;23.288;2024-03-07T05:02:29;5.40;;;4.00;;
13040;SDS011;6587;42.728;23.288;2024-03-07T05:04:56;7.20;;;4.47;;
13040;SDS011;6587;42.728;23.288;2024-03-07T05:07:23;5.93;;;3.90;;
13040;SDS011;6587;42.728;23.288;2024-03-07T05:09:51;5.37;;;3.60;;
13040;SDS011;6587;42.728;23.288;2024-03-07T05:12:18;6.63;;;4.60;;
13040;SDS011;6587;42.728;23.288;2024-03-07T05:14:46;7.07;;;4.10;;
13040;SDS011;6587;42.728;23.288;2024-03-07T05:17:13;5.87;;;4.13;;
13040;SDS011;6587;42.728;23.288;2024-03-07T05:19:40;8.13;;;4.77;;
13040;SDS011;6587;42.728;23.288;2024-03-07T05:22:07;8.20;;;4.97;;
13040;SDS011;6587;42.728;23.288;2024-03-07T05:24:39;7.37;;;5.13;;
13040;SDS011;6587;42.728;23.288;2024-03-07T05:27:07;6.70;;;4.73;;
13040;SDS011;6587;42.728;23.288;2024-03-07T05:29:36;6.40;;;4.60;;
13040;SDS011;6587;42.728;23.288;2024-03-07T05:34:57;6.60;;;4.60;;
13040;SDS011;6587;42.728;23.288;2024-03-07T05:37:23;7.00;;;4.63;;
13040;SDS011;6587;42.728;23.288;2024-03-07T05:39:50;7.07;;;4.67;;
13040;SDS011;6587;42.728;23.288;2024-03-07T05:42:18;6.67;;;4.63;;
13040;SDS011;6587;42.728;23.288;2024-03-07T05:44:45;7.13;;;5.00;;
13040;SDS011;6587;42.728;23.288;2024-03-07T05:47:12;6.80;;;4.63;;
13040;SDS011;6587;42.728;23.288;2024-03-07T05:49:39;7.53;;;5.20;;
13040;SDS011;6587;42.728;23.288;2024-03-07T05:52:08;6.07;;;4.77;;
13040;SDS011;6587;42.728;23.288;2024-03-07T05:54:35;7.33;;;5.33;;
13040;SDS011;6587;42.728;23.288;2024-03-07T05:57:02;8.50;;;5.50;;
13040;SDS011;6587;42.728;23.288;2024-03-07T05:59:32;7.47;;;5.37;;
13040;SDS011;6587;42.728;23.288;2024-03-07T06:01:59;6.37;;;4.70;;
13040;SDS011;6587;42.728;23.288;2024-03-07T06:04:26;5.50;;;4.70;;
13040;SDS011;6587;42.728;23.288;2024-03-07T06:06:53;9.77;;;5.17;;
13040;SDS011;6587;42.728;23.288;2024-03-07T06:09:21;7.50;;;5.03;;
13040;SDS011;6587;42.728;23.288;2024-03-07T06:11:48;8.17;;;5.57;;
13040;SDS011;6587;42.728;23.288;2024-03-07T06:14:15;7.17;;;5.37;;
13040;SDS011;6587;42.728;23.288;2024-03-07T06:16:43;9.13;;;5.40;;
13040;SDS011;6587;42.728;23.288;2024-03-07T06:19:10;9.37;;;5.60;;
13040;SDS011;6587;42.728;23.288;2024-03-07T06:21:37;7.03;;;5.20;;
13040;SDS011;6587;42.728;23.288;2024-03-07T06:24:05;9.77;;;5.60;;
13040;SDS011;6587;42.728;23.288;2024-03-07T06:26:35;8.20;;;5.37;;
13040;SDS011;6587;42.728;23.288;2024-03-07T06:29:11;7.50;;;4.97;;
13040;SDS011;6587;42.728;23.288;2024-03-07T06:31:38;8.13;;;5.60;;
13040;SDS011;6587;42.728;23.288;2024-03-07T06:34:05;8.17;;;5.50;;
13040;SDS011;6587;42.728;23.288;2024-03-07T06:36:33;9.60;;;6.60;;
13040;SDS011;6587;42.728;23.288;2024-03-07T06:39:00;13.20;;;7.77;;
13040;SDS011;6587;42.728;23.288;2024-03-07T06:41:30;21.97;;;13.47;;
13040;SDS011;6587;42.728;23.288;2024-03-07T06:43:58;40.07;;;23.60;;
13040;SDS011;6587;42.728;23.288;2024-03-07T06:46:25;54.63;;;30.43;;
13040;SDS011;6587;42.728;23.288;2024-03-07T06:48:52;57.27;;;32.93;;
13040;SDS011;6587;42.728;23.288;2024-03-07T06:51:19;56.63;;;32.30;;
13040;SDS011;6587;42.728;23.288;2024-03-07T06:53:45;55.70;;;31.50;;
13040;SDS011;6587;42.728;23.288;2024-03-07T06:56:12;46.70;;;27.00;;
13040;SDS011;6587;42.728;23.288;2024-03-07T06:58:39;39.23;;;23.10;;
13040;SDS011;6587;42.728;23.288;2024-03-07T07:01:09;26.30;;;15.60;;
13040;SDS011;6587;42.728;23.288;2024-03-07T07:03:40;24.60;;;15.83;;
13040;SDS011;6587;42.728;23.288;2024-03-07T07:06:08;27.87;;;15.97;;
13040;SDS011;6587;42.728;23.288;2024-03-07T07:08:35;25.73;;;15.67;;
13040;SDS011;6587;42.728;23.288;2024-03-07T07:11:03;24.07;;;15.53;;
13040;SDS011;6587;42.728;23.288;2024-03-07T07:13:30;18.90;;;12.57;;
13040;SDS011;6587;42.728;23.288;2024-03-07T07:15:57;11.93;;;8.63;;
13040;SDS011;6587;42.728;23.288;2024-03-07T07:18:25;13.43;;;8.10;;
13040;SDS011;6587;42.728;23.288;2024-03-07T07:20:52;11.93;;;7.00;;
13040;SDS011;6587;42.728;23.288;2024-03-07T07:23:19;10.10;;;6.73;;
13040;SDS011;6587;42.728;23.288;2024-03-07T07:25:47;5.80;;;4.67;;
13040;SDS011;6587;42.728;23.288;2024-03-07T07:28:13;5.63;;;4.10;;
13040;SDS011;6587;42.728;23.288;2024-03-07T07:30:41;7.13;;;4.40;;
13040;SDS011;6587;42.728;23.288;2024-03-07T07:33:08;5.67;;;4.20;;
13040;SDS011;6587;42.728;23.288;2024-03-07T07:35:37;5.60;;;4.13;;
13040;SDS011;6587;42.728;23.288;2024-03-07T07:38:04;6.00;;;3.80;;
13040;SDS011;6587;42.728;23.288;2024-03-07T07:40:32;5.20;;;3.90;;
13040;SDS011;6587;42.728;23.288;2024-03-07T07:42:59;7.37;;;4.63;;
13040;SDS011;6587;42.728;23.288;2024-03-07T07:45:26;6.47;;;4.63;;
13040;SDS011;6587;42.728;23.288;2024-03-07T07:47:53;7.93;;;4.60;;
13040;SDS011;6587;42.728;23.288;2024-03-07T07:50:19;6.17;;;3.80;;
13040;SDS011;6587;42.728;23.288;2024-03-07T07:52:49;6.37;;;4.13;;
13040;SDS011;6587;42.728;23.288;2024-03-07T07:55:19;5.20;;;3.70;;
13040;SDS011;6587;42.728;23.288;2024-03-07T07:57:46;5.00;;;4.03;;
13040;SDS011;6587;42.728;23.288;2024-03-07T08:00:14;7.47;;;4.50;;
13040;SDS011;6587;42.728;23.288;2024-03-07T08:02:51;6.50;;;4.33;;
13040;SDS011;6587;42.728;23.288;2024-03-07T08:05:19;6.30;;;4.30;;
13040;SDS011;6587;42.728;23.288;2024-03-07T08:07:49;7.23;;;4.40;;
13040;SDS011;6587;42.728;23.288;2024-03-07T08:10:17;6.37;;;4.10;;
13040;SDS011;6587;42.728;23.288;2024-03-07T08:12:45;8.50;;;3.63;;
13040;SDS011;6587;42.728;23.288;2024-03-07T08:15:12;7.17;;;3.70;;
13040;SDS011;6587;42.728;23.288;2024-03-07T08:17:42;5.67;;;3.37;;
13040;SDS011;6587;42.728;23.288;2024-03-07T08:20:10;5.63;;;3.67;;
13040;SDS011;6587;42.728;23.288;2024-03-07T08:22:38;5.87;;;3.60;;
13040;SDS011;6587;42.728;23.288;2024-03-07T08:25:09;5.23;;;3.60;;
13040;SDS011;6587;42.728;23.288;2024-03-07T08:27:36;10.83;;;3.87;;
13040;SDS011;6587;42.728;23.288;2024-03-07T08:30:04;4.27;;;3.50;;
13040;SDS011;6587;42.728;23.288;2024-03-07T08:32:33;4.57;;;3.17;;
13040;SDS011;6587;42.728;23.288;2024-03-07T08:35:02;6.23;;;3.00;;
13040;SDS011;6587;42.728;23.288;2024-03-07T08:37:32;5.07;;;3.30;;
13040;SDS011;6587;42.728;23.288;2024-03-07T08:40:00;5.93;;;3.50;;
13040;SDS011;6587;42.728;23.288;2024-03-07T08:42:30;4.70;;;3.57;;
13040;SDS011;6587;42.728;23.288;2024-03-07T08:44:59;4.77;;;3.57;;
13040;SDS011;6587;42.728;23.288;2024-03-07T08:47:26;5.63;;;3.97;;
13040;SDS011;6587;42.728;23.288;2024-03-07T08:49:53;5.00;;;3.20;;
13040;SDS011;6587;42.728;23.288;2024-03-07T08:52:20;4.67;;;3.20;;
13040;SDS011;6587;42.728;23.288;2024-03-07T08:54:47;5.27;;;3.27;;
13040;SDS011;6587;42.728;23.288;2024-03-07T08:57:14;4.43;;;3.20;;
13040;SDS011;6587;42.728;23.288;2024-03-07T08:59:43;4.60;;;3.30;;
13040;SDS011;6587;42.728;23.288;2024-03-07T09:02:10;6.13;;;3.17;;
13040;SDS011;6587;42.728;23.288;2024-03-07T09:04:37;4.70;;;3.23;;
13040;SDS011;6587;42.728;23.288;2024-03-07T09:07:04;4.73;;;3.80;;
13040;SDS011;6587;42.728;23.288;2024-03-07T09:09:31;11.03;;;8.03;;
13040;SDS011;6587;42.728;23.288;2024-03-07T09:11:58;6.20;;;4.50;;
13040;SDS011;6587;42.728;23.288;2024-03-07T09:14:26;5.77;;;4.33;;
13040;SDS011;6587;42.728;23.288;2024-03-07T09:16:54;5.37;;;4.10;;
13040;SDS011;6587;42.728;23.288;2024-03-07T09:19:21;6.17;;;5.10;;
13040;SDS011;6587;42.728;23.288;2024-03-07T09:21:50;5.77;;;5.07;;
13040;SDS011;6587;42.728;23.288;2024-03-07T09:24:18;5.17;;;4.03;;
13040;SDS011;6587;42.728;23.288;2024-03-07T09:26:47;5.63;;;4.10;;
13040;SDS011;6587;42.728;23.288;2024-03-07T09:29:14;5.63;;;3.90;;
13040;SDS011;6587;42.728;23.288;2024-03-07T09:31:41;5.90;;;3.87;;
13040;SDS011;6587;42.728;23.288;2024-03-07T09:34:09;5.57;;;4.03;;
13040;SDS011;6587;42.728;23.288;2024-03-07T09:36:37;6.27;;;4.70;;
13040;SDS011;6587;42.728;23.288;2024-03-07T09:39:04;4.53;;;3.53;;
13040;SDS011;6587;42.728;23.288;2024-03-07T09:41:31;4.97;;;4.07;;
13040;SDS011;6587;42.728;23.288;2024-03-07T09:43:58;5.77;;;3.57;;
13040;SDS011;6587;42.728;23.288;2024-03-07T09:46:28;6.00;;;3.77;;
13040;SDS011;6587;42.728;23.288;2024-03-07T09:48:56;7.93;;;5.00;;
13040;SDS011;6587;42.728;23.288;2024-03-07T09:51:25;6.00;;;4.50;;
13040;SDS011;6587;42.728;23.288;2024-03-07T09:53:54;6.50;;;3.47;;
13040;SDS011;6587;42.728;23.288;2024-03-07T09:56:24;5.17;;;3.50;;
13040;SDS011;6587;42.728;23.288;2024-03-07T09:58:54;6.10;;;3.70;;
13040;SDS011;6587;42.728;23.288;2024-03-07T10:01:25;7.10;;;4.27;;
13040;SDS011;6587;42.728;23.288;2024-03-07T10:03:55;5.90;;;3.93;;
13040;SDS011;6587;42.728;23.288;2024-03-07T10:06:28;4.77;;;3.90;;
13040;SDS011;6587;42.728;23.288;2024-03-07T10:08:55;7.70;;;4.27;;
13040;SDS011;6587;42.728;23.288;2024-03-07T10:11:24;4.90;;;4.17;;
13040;SDS011;6587;42.728;23.288;2024-03-07T10:13:52;6.07;;;3.93;;
13040;SDS011;6587;42.728;23.288;2024-03-07T10:16:19;4.53;;;3.73;;
13040;SDS011;6587;42.728;23.288;2024-03-07T10:18:46;5.90;;;4.43;;
13040;SDS011;6587;42.728;23.288;2024-03-07T10:21:18;5.67;;;4.13;;
13040;SDS011;6587;42.728;23.288;2024-03-07T10:23:47;7.77;;;4.60;;
13040;SDS011;6587;42.728;23.288;2024-03-07T10:26:15;7.20;;;4.60;;
13040;SDS011;6587;42.728;23.288;2024-03-07T10:28:42;8.90;;;4.23;;
13040;SDS011;6587;42.728;23.288;2024-03-07T10:31:09;4.40;;;3.77;;
13040;SDS011;6587;42.728;23.288;2024-03-07T10:33:40;5.73;;;3.43;;
13040;SDS011;6587;42.728;23.288;2024-03-07T10:36:09;4.93;;;3.73;;
13040;SDS011;6587;42.728;23.288;2024-03-07T10:38:39;5.23;;;3.97;;
13040;SDS011;6587;42.728;23.288;2024-03-07T10:41:07;5.93;;;4.63;;
13040;SDS011;6587;42.728;23.288;2024-03-07T10:43:35;5.03;;;3.47;;
13040;SDS011;6587;42.728;23.288;2024-03-07T10:46:07;4.30;;;3.43;;
13040;SDS011;6587;42.728;23.288;2024-03-07T10:48:38;5.13;;;3.43;;
13040;SDS011;6587;42.728;23.288;2024-03-07T10:51:06;3.77;;;3.37;;
13040;SDS011;6587;42.728;23.288;2024-03-07T10:53:50;4.77;;;3.90;;
13040;SDS011;6587;42.728;23.288;2024-03-07T10:56:37;6.20;;;3.83;;
13040;SDS011;6587;42.728;23.288;2024-03-07T10:59:16;5.27;;;4.27;;
13040;SDS011;6587;42.728;23.288;2024-03-07T11:01:45;6.77;;;3.87;;
13040;SDS011;6587;42.728;23.288;2024-03-07T11:04:16;5.40;;;3.57;;
13040;SDS011;6587;42.728;23.288;2024-03-07T11:06:44;8.07;;;3.83;;
13040;SDS011;6587;42.728;23.288;2024-03-07T11:09:11;6.57;;;4.00;;
13040;SDS011;6587;42.728;23.288;2024-03-07T11:11:40;5.00;;;3.87;;
13040;SDS011;6587;42.728;23.288;2024-03-07T11:14:09;6.40;;;3.90;;
13040;SDS011;6587;42.728;23.288;2024-03-07T11:16:38;6.47;;;3.70;;
13040;SDS011;6587;42.728;23.288;2024-03-07T11:19:19;5.97;;;3.43;;
13040;SDS011;6587;42.728;23.288;2024-03-07T11:21:52;6.53;;;3.77;;
13040;SDS011;6587;42.728;23.288;2024-03-07T11:24:22;6.40;;;3.77;;
13040;SDS011;6587;42.728;23.288;2024-03-07T11:26:52;7.00;;;4.10;;
13040;SDS011;6587;42.728;23.288;2024-03-07T11:32:12;5.70;;;4.27;;
13040;SDS011;6587;42.728;23.288;2024-03-07T11:34:40;7.50;;;4.70;;
13040;SDS011;6587;42.728;23.288;2024-03-07T11:37:07;7.00;;;4.53;;
13040;SDS011;6587;42.728;23.288;2024-03-07T11:39:43;5.03;;;4.37;;
13040;SDS011;6587;42.728;23.288;2024-03-07T11:44:56;7.10;;;4.50;;
13040;SDS011;6587;42.728;23.288;2024-03-07T11:47:24;8.40;;;4.83;;
13040;SDS011;6587;42.728;23.288;2024-03-07T11:49:54;6.13;;;4.70;;
13040;SDS011;6587;42.728;23.288;2024-03-07T11:52:23;6.50;;;4.43;;
13040;SDS011;6587;42.728;23.288;2024-03-07T11:54:52;13.37;;;4.50;;
13040;SDS011;6587;42.728;23.288;2024-03-07T11:57:30;4.80;;;4.00;;
13040;SDS011;6587;42.728;23.288;2024-03-07T11:59:59;7.23;;;4.17;;
13040;SDS011;6587;42.728;23.288;2024-03-07T12:02:38;6.30;;;4.30;;
13040;SDS011;6587;42.728;23.288;2024-03-07T12:05:06;5.63;;;3.97;;
13040;SDS011;6587;42.728;23.288;2024-03-07T12:07:33;8.60;;;4.17;;
13040;SDS011;6587;42.728;23.288;2024-03-07T12:10:01;5.13;;;3.80;;
13040;SDS011;6587;42.728;23.288;2024-03-07T12:12:31;5.63;;;4.03;;
13040;SDS011;6587;42.728;23.288;2024-03-07T12:14:59;7.63;;;4.07;;
13040;SDS011;6587;42.728;23.288;2024-03-07T12:17:27;4.97;;;3.80;;
13040;SDS011;6587;42.728;23.288;2024-03-07T12:19:56;5.37;;;4.00;;
13040;SDS011;6587;42.728;23.288;2024-03-07T12:22:27;6.03;;;4.60;;
13040;SDS011;6587;42.728;23.288;2024-03-07T12:25:04;7.63;;;5.30;;
13040;SDS011;6587;42.728;23.288;2024-03-07T12:27:35;7.30;;;5.43;;
13040;SDS011;6587;42.728;23.288;2024-03-07T12:30:04;9.43;;;5.13;;
13040;SDS011;6587;42.728;23.288;2024-03-07T12:32:47;7.70;;;5.57;;
13040;SDS011;6587;42.728;23.288;2024-03-07T12:35:16;7.70;;;5.37;;
13040;SDS011;6587;42.728;23.288;2024-03-07T12:37:43;9.20;;;5.53;;
13040;SDS011;6587;42.728;23.288;2024-03-07T12:40:11;9.67;;;6.63;;
13040;SDS011;6587;42.728;23.288;2024-03-07T12:42:46;8.60;;;5.77;;
13040;SDS011;6587;42.728;23.288;2024-03-07T12:45:15;7.67;;;5.60;;
13040;SDS011;6587;42.728;23.288;2024-03-07T12:47:43;8.93;;;5.77;;
13040;SDS011;6587;42.728;23.288;2024-03-07T12:50:10;11.37;;;6.20;;
13040;SDS011;6587;42.728;23.288;2024-03-07T12:52:37;8.93;;;5.53;;
13040;SDS011;6587;42.728;23.288;2024-03-07T12:55:06;6.47;;;5.03;;
13040;SDS011;6587;42.728;23.288;2024-03-07T12:57:33;9.90;;;5.47;;
13040;SDS011;6587;42.728;23.288;2024-03-07T13:00:02;8.00;;;5.17;;
13040;SDS011;6587;42.728;23.288;2024-03-07T13:02:41;10.47;;;5.77;;
13040;SDS011;6587;42.728;23.288;2024-03-07T13:05:10;8.50;;;5.83;;
13040;SDS011;6587;42.728;23.288;2024-03-07T13:07:43;7.23;;;5.67;;
13040;SDS011;6587;42.728;23.288;2024-03-07T13:10:12;8.60;;;5.97;;
13040;SDS011;6587;42.728;23.288;2024-03-07T13:12:40;12.93;;;6.97;;
13040;SDS011;6587;42.728;23.288;2024-03-07T13:15:10;6.00;;;3.00;;
13040;SDS011;6587;42.728;23.288;2024-03-07T13:17:37;10.20;;;2.87;;
13040;SDS011;6587;42.728;23.288;2024-03-07T13:20:05;2.57;;;2.00;;
13040;SDS011;6587;42.728;23.288;2024-03-07T13:22:37;8.83;;;2.87;;
13040;SDS011;6587;42.728;23.288;2024-03-07T13:25:08;6.73;;;4.70;;
13040;SDS011;6587;42.728;23.288;2024-03-07T13:27:40;6.57;;;3.97;;
13040;SDS011;6587;42.728;23.288;2024-03-07T13:30:11;8.77;;;4.83;;
13040;SDS011;6587;42.728;23.288;2024-03-07T13:32:52;8.40;;;5.00;;
13040;SDS011;6587;42.728;23.288;2024-03-07T13:35:20;11.53;;;5.37;;
13040;SDS011;6587;42.728;23.288;2024-03-07T13:37:47;5.03;;;3.57;;
13040;SDS011;6587;42.728;23.288;2024-03-07T13:40:15;3.23;;;2.50;;
13040;SDS011;6587;42.728;23.288;2024-03-07T13:42:52;3.67;;;2.40;;
13040;SDS011;6587;42.728;23.288;2024-03-07T13:45:24;5.80;;;3.63;;
13040;SDS011;6587;42.728;23.288;2024-03-07T13:47:53;8.80;;;4.27;;
13040;SDS011;6587;42.728;23.288;2024-03-07T13:50:22;5.43;;;3.90;;
13040;SDS011;6587;42.728;23.288;2024-03-07T13:52:51;5.23;;;4.07;;
13040;SDS011;6587;42.728;23.288;2024-03-07T13:55:46;6.57;;;3.57;;
13040;SDS011;6587;42.728;23.288;2024-03-07T13:58:28;5.67;;;3.80;;
13040;SDS011;6587;42.728;23.288;2024-03-07T14:01:23;4.87;;;3.70;;
13040;SDS011;6587;42.728;23.288;2024-03-07T14:07:20;5.90;;;3.50;;
13040;SDS011;6587;42.728;23.288;2024-03-07T14:10:06;6.67;;;4.00;;
13040;SDS011;6587;42.728;23.288;2024-03-07T14:13:05;9.33;;;3.90;;
13040;SDS011;6587;42.728;23.288;2024-03-07T14:15:57;3.83;;;2.77;;
13040;SDS011;6587;42.728;23.288;2024-03-07T14:18:53;4.10;;;3.03;;
13040;SDS011;6587;42.728;23.288;2024-03-07T14:28:01;4.83;;;3.23;;
13040;SDS011;6587;42.728;23.288;2024-03-07T14:30:39;6.17;;;3.10;;
13040;SDS011;6587;42.728;23.288;2024-03-07T14:33:10;6.17;;;3.67;;
13040;SDS011;6587;42.728;23.288;2024-03-07T14:38:34;5.00;;;3.50;;
13040;SDS011;6587;42.728;23.288;2024-03-07T14:41:10;7.40;;;4.03;;
13040;SDS011;6587;42.728;23.288;2024-03-07T14:43:40;5.77;;;3.77;;
13040;SDS011;6587;42.728;23.288;2024-03-07T14:46:08;7.70;;;4.50;;
13040;SDS011;6587;42.728;23.288;2024-03-07T14:48:35;7.93;;;5.07;;
13040;SDS011;6587;42.728;23.288;2024-03-07T14:51:03;8.67;;;5.40;;
13040;SDS011;6587;42.728;23.288;2024-03-07T14:53:33;8.10;;;5.20;;
13040;SDS011;6587;42.728;23.288;2024-03-07T14:55:59;7.20;;;5.30;;
13040;SDS011;6587;42.728;23.288;2024-03-07T14:58:26;11.17;;;6.33;;
13040;SDS011;6587;42.728;23.288;2024-03-07T15:00:53;9.57;;;6.00;;
13040;SDS011;6587;42.728;23.288;2024-03-07T15:03:20;11.13;;;6.00;;
13040;SDS011;6587;42.728;23.288;2024-03-07T15:05:47;11.60;;;6.63;;
13040;SDS011;6587;42.728;23.288;2024-03-07T15:08:15;12.93;;;6.70;;
13040;SDS011;6587;42.728;23.288;2024-03-07T15:10:42;10.53;;;6.97;;